createdAt,value
2023-05-22T00:00:38.920Z,99844.46
2023-05-22T00:03:25.634Z,99841.19
2023-05-22T00:05:59.070Z,99832.20
2023-05-22T00:08:31.403Z,99827.40
2023-05-22T00:11:03.682Z,99821.89
2023-05-22T00:13:35.678Z,99821.59
2023-05-22T00:16:08.528Z,99821.23
2023-05-22T00:18:42.552Z,99820.94
2023-05-22T00:21:14.686Z,99826.50
2023-05-22T00:23:47.013Z,99824.29
2023-05-22T00:26:19.079Z,99826.06
2023-05-22T00:28:51.114Z,99826.77
2023-05-22T00:31:23.229Z,99827.15
2023-05-22T00:33:55.365Z,99826.15
2023-05-22T00:36:27.638Z,99825.66
2023-05-22T00:38:59.831Z,99825.00
2023-05-22T00:41:34.062Z,99822.60
2023-05-22T00:44:06.488Z,99819.30
2023-05-22T00:46:39.311Z,99814.28
2023-05-22T00:49:11.372Z,99814.79
2023-05-22T00:51:43.805Z,99813.22
2023-05-22T00:54:16.699Z,99812.16
2023-05-22T00:56:50.090Z,99807.59
2023-05-22T00:59:22.322Z,99806.02
2023-05-22T01:01:54.903Z,99805.83
2023-05-22T01:04:28.294Z,99802.51
2023-05-22T01:07:03.261Z,99800.24
2023-05-22T01:09:35.341Z,99800.58
2023-05-22T01:12:17.428Z,99799.88
2023-05-22T01:14:54.941Z,99798.30
2023-05-22T01:17:34.988Z,99798.42
2023-05-22T01:20:22.513Z,99801.00
2023-05-22T01:23:37.242Z,99797.81
2023-05-22T01:26:42.547Z,99800.75
2023-05-22T01:29:49.287Z,99800.13
2023-05-22T01:32:24.797Z,99803.04
2023-05-22T01:34:57.842Z,99806.45
2023-05-22T01:37:30.868Z,99807.83
2023-05-22T01:40:03.994Z,99805.20
2023-05-22T01:42:36.859Z,99804.49
2023-05-22T01:45:12.520Z,99801.89
2023-05-22T01:47:44.757Z,99804.48
2023-05-22T01:50:17.713Z,99803.40
2023-05-22T01:52:57.299Z,99801.77
2023-05-22T01:55:43.139Z,99803.61
2023-05-22T01:58:23.752Z,99805.45
2023-05-22T02:01:03.238Z,99810.46
2023-05-22T02:03:37.040Z,99809.36
2023-05-22T02:06:13.314Z,99807.56
2023-05-22T02:08:46.260Z,99808.81
2023-05-22T02:11:21.753Z,99818.11
2023-05-22T02:13:54.578Z,99812.45
2023-05-22T02:16:29.015Z,99810.19
2023-05-22T02:19:06.588Z,99809.02
2023-05-22T02:21:39.460Z,99810.48
2023-05-22T02:24:11.896Z,99811.16
2023-05-22T02:26:45.780Z,99807.19
2023-05-22T02:29:17.870Z,99807.16
2023-05-22T02:31:49.899Z,99809.59
2023-05-22T02:34:22.061Z,99812.92
2023-05-22T02:36:54.135Z,99807.77
2023-05-22T02:39:26.359Z,99808.45
2023-05-22T02:41:59.834Z,99807.25
2023-05-22T02:44:32.074Z,99809.99
2023-05-22T02:47:04.173Z,99813.73
2023-05-22T02:49:36.174Z,99815.05
2023-05-22T02:52:09.500Z,99810.37
2023-05-22T02:54:42.069Z,99809.42
2023-05-22T02:57:14.138Z,99809.91
2023-05-22T02:59:46.208Z,99811.59
2023-05-22T03:02:20.010Z,99812.64
2023-05-22T03:04:53.589Z,99815.25
2023-05-22T03:07:26.465Z,99814.69
2023-05-22T03:09:58.766Z,99817.82
2023-05-22T03:12:30.933Z,99819.36
2023-05-22T03:15:03.232Z,99820.68
2023-05-22T03:17:35.769Z,99818.93
2023-05-22T03:20:09.962Z,99819.80
2023-05-22T03:22:42.045Z,99820.73
2023-05-22T03:25:14.207Z,99819.16
2023-05-22T03:27:47.402Z,99821.26
2023-05-22T03:30:20.218Z,99823.64
2023-05-22T03:33:01.419Z,99826.27
2023-05-22T03:35:33.746Z,99824.85
2023-05-22T03:38:05.886Z,99822.28
2023-05-22T03:40:38.540Z,99822.68
2023-05-22T03:43:11.169Z,99820.98
2023-05-22T03:45:43.963Z,99819.66
2023-05-22T03:48:16.936Z,99822.33
2023-05-22T03:50:50.136Z,99824.42
2023-05-22T03:53:22.473Z,99827.27
2023-05-22T03:55:54.526Z,99825.61
2023-05-22T03:58:26.993Z,99828.77
2023-05-22T04:01:01.339Z,99827.40
2023-05-22T04:03:33.565Z,99828.64
2023-05-22T04:06:06.441Z,99828.00
2023-05-22T04:08:38.529Z,99827.65
2023-05-22T04:11:10.627Z,99830.56
2023-05-22T04:13:42.740Z,99833.31
2023-05-22T04:16:17.723Z,99831.16
2023-05-22T04:18:49.810Z,99828.67
2023-05-22T04:21:23.674Z,99828.17
2023-05-22T04:23:55.696Z,99823.25
2023-05-22T04:26:32.234Z,99820.08
2023-05-22T04:29:04.621Z,99817.84
2023-05-22T04:31:36.780Z,99819.84
2023-05-22T04:34:12.978Z,99818.14
2023-05-22T04:36:47.126Z,99817.46
2023-05-22T04:39:19.225Z,99813.13
2023-05-22T04:41:51.245Z,99812.95
2023-05-22T04:44:23.962Z,99810.16
2023-05-22T04:46:57.629Z,99810.09
2023-05-22T04:49:29.889Z,99812.08
2023-05-22T04:52:04.929Z,99809.69
2023-05-22T04:54:37.386Z,99809.34
2023-05-22T04:57:09.763Z,99807.48
2023-05-22T04:59:41.859Z,99805.11
2023-05-22T05:02:14.757Z,99803.14
2023-05-22T05:04:47.137Z,99799.91
2023-05-22T05:07:20.450Z,99798.78
2023-05-22T05:09:52.694Z,99798.98
2023-05-22T05:12:24.895Z,99799.87
2023-05-22T05:14:57.123Z,99801.29
2023-05-22T05:17:29.484Z,99796.48
2023-05-22T05:20:01.756Z,99797.74
2023-05-22T05:22:34.182Z,99797.79
2023-05-22T05:25:11.474Z,99798.22
2023-05-22T05:27:44.387Z,99796.70
2023-05-22T05:30:19.597Z,99800.73
2023-05-22T05:33:11.847Z,99803.36
2023-05-22T05:36:04.273Z,99804.75
2023-05-22T05:38:37.508Z,99804.06
2023-05-22T05:41:10.118Z,99807.85
2023-05-22T05:43:42.974Z,99809.26
2023-05-22T05:46:15.731Z,99801.75
2023-05-22T05:48:47.843Z,99800.14
2023-05-22T05:51:21.060Z,99795.21
2023-05-22T05:53:53.429Z,99796.68
2023-05-22T05:56:26.209Z,99798.31
2023-05-22T05:58:58.457Z,99797.73
2023-05-22T06:01:47.296Z,99794.00
2023-05-22T06:04:24.798Z,99788.47
2023-05-22T06:06:57.219Z,99791.30
2023-05-22T06:09:34.031Z,99790.97
2023-05-22T06:12:13.569Z,99787.86
2023-05-22T06:14:48.730Z,99789.48
2023-05-22T06:17:21.114Z,99793.16
2023-05-22T06:19:53.784Z,99790.02
2023-05-22T06:22:26.890Z,99783.95
2023-05-22T06:24:59.173Z,99782.71
2023-05-22T06:27:32.620Z,99783.55
2023-05-22T06:30:06.221Z,99780.59
2023-05-22T06:32:42.719Z,99786.34
2023-05-22T06:35:16.044Z,99786.13
2023-05-22T06:37:48.145Z,99785.92
2023-05-22T06:40:20.335Z,99783.02
2023-05-22T06:42:58.649Z,99784.48
2023-05-22T06:45:30.898Z,99782.05
2023-05-22T06:48:22.331Z,99775.13
2023-05-22T06:51:12.929Z,99771.45
2023-05-22T06:53:46.410Z,99773.55
2023-05-22T06:56:22.901Z,99771.96
2023-05-22T06:58:59.343Z,99773.08
2023-05-22T07:01:54.356Z,99772.27
2023-05-22T07:04:42.642Z,99775.23
2023-05-22T07:07:19.066Z,99771.66
2023-05-22T07:09:51.558Z,99767.05
2023-05-22T07:12:26.357Z,99767.70
2023-05-22T07:15:00.383Z,99765.73
2023-05-22T07:17:33.747Z,99762.89
2023-05-22T07:20:07.489Z,99762.86
2023-05-22T07:22:40.846Z,99763.36
2023-05-22T07:25:13.395Z,99761.78
2023-05-22T07:27:45.524Z,99765.84
2023-05-22T07:30:18.326Z,99765.67
2023-05-22T07:32:51.473Z,99760.18
2023-05-22T07:35:24.699Z,99762.86
2023-05-22T07:37:57.003Z,99757.14
2023-05-22T07:40:29.570Z,99755.48
2023-05-22T07:43:02.145Z,99753.48
2023-05-22T07:45:34.380Z,99755.91
2023-05-22T07:48:08.177Z,99754.93
2023-05-22T07:50:45.401Z,99750.20
2023-05-22T07:53:18.184Z,99755.16
2023-05-22T07:55:50.994Z,99749.23
2023-05-22T07:58:24.273Z,99749.80
2023-05-22T08:00:57.506Z,99743.52
2023-05-22T08:03:30.501Z,99747.13
2023-05-22T08:06:04.314Z,99741.66
2023-05-22T08:08:36.653Z,99736.73
2023-05-22T08:11:09.013Z,99737.34
2023-05-22T08:13:41.629Z,99738.38
2023-05-22T08:16:14.454Z,99740.40
2023-05-22T08:18:49.100Z,99741.10
2023-05-22T08:21:21.509Z,99737.11
2023-05-22T08:23:53.674Z,99726.32
2023-05-22T08:26:26.557Z,99720.70
2023-05-22T08:28:58.919Z,99721.33
2023-05-22T08:31:31.165Z,99724.17
2023-05-22T08:34:04.878Z,99723.25
2023-05-22T08:36:37.027Z,99717.73
2023-05-22T08:39:11.014Z,99721.40
2023-05-22T08:41:43.998Z,99718.50
2023-05-22T08:44:16.396Z,99711.30
2023-05-22T08:46:49.696Z,99713.56
2023-05-22T08:49:24.201Z,99714.16
2023-05-22T08:52:04.486Z,99717.90
2023-05-22T08:54:42.383Z,99720.94
2023-05-22T08:57:15.181Z,99721.84
2023-05-22T08:59:49.123Z,99724.87
2023-05-22T09:02:21.354Z,99724.88
2023-05-22T09:04:53.769Z,99725.56
2023-05-22T09:07:28.205Z,99729.50
2023-05-22T09:10:01.284Z,99726.28
2023-05-22T09:12:34.697Z,99727.74
2023-05-22T09:15:16.636Z,99727.26
2023-05-22T09:17:49.044Z,99723.95
2023-05-22T09:20:21.563Z,99721.55
2023-05-22T09:22:53.625Z,99716.05
2023-05-22T09:25:26.755Z,99708.55
2023-05-22T09:27:59.213Z,99706.81
2023-05-22T09:30:35.373Z,99707.59
2023-05-22T09:33:09.353Z,99713.90
2023-05-22T09:35:44.300Z,99708.17
2023-05-22T09:38:18.230Z,99703.40
2023-05-22T09:40:55.687Z,99704.94
2023-05-22T09:43:27.997Z,99700.09
2023-05-22T09:46:04.371Z,99695.98
2023-05-22T09:48:38.252Z,99696.05
2023-05-22T09:51:13.827Z,99692.84
2023-05-22T09:53:47.407Z,99692.20
2023-05-22T09:56:37.989Z,99690.36
2023-05-22T09:59:14.309Z,99685.02
2023-05-22T10:01:47.913Z,99686.30
2023-05-22T10:04:23.275Z,99683.83
2023-05-22T10:06:58.706Z,99677.98
2023-05-22T10:09:32.920Z,99680.42
2023-05-22T10:12:10.405Z,99676.79
2023-05-22T10:14:43.022Z,99675.05
2023-05-22T10:17:17.044Z,99675.06
2023-05-22T10:19:50.505Z,99669.08
2023-05-22T10:22:26.114Z,99670.19
2023-05-22T10:24:58.669Z,99667.90
2023-05-22T10:27:30.773Z,99664.84
2023-05-22T10:30:11.553Z,99665.77
2023-05-22T10:32:48.340Z,99667.41
2023-05-22T10:35:28.875Z,99662.29
2023-05-22T10:38:15.660Z,99662.82
2023-05-22T10:40:49.070Z,99658.68
2023-05-22T10:43:22.710Z,99660.02
2023-05-22T10:46:05.302Z,99658.95
2023-05-22T10:48:45.522Z,99658.44
2023-05-22T10:51:20.651Z,99657.90
2023-05-22T10:53:59.780Z,99659.56
2023-05-22T10:56:37.430Z,99657.91
2023-05-22T10:59:09.728Z,99655.02
2023-05-22T11:01:41.859Z,99652.20
2023-05-22T11:04:27.849Z,99650.56
2023-05-22T11:07:08.884Z,99644.35
2023-05-22T11:09:46.162Z,99646.49
2023-05-22T11:12:26.710Z,99645.89
2023-05-22T11:15:03.706Z,99643.15
2023-05-22T11:17:42.734Z,99639.36
2023-05-22T11:20:22.454Z,99641.55
2023-05-22T11:23:00.637Z,99642.65
2023-05-22T11:25:34.248Z,99634.60
2023-05-22T11:28:10.782Z,99638.53
2023-05-22T11:30:44.419Z,99636.01
2023-05-22T11:33:17.572Z,99637.67
2023-05-22T11:35:51.870Z,99630.89
2023-05-22T11:38:25.094Z,99633.98
2023-05-22T11:40:59.233Z,99636.03
2023-05-22T11:43:35.402Z,99629.59
2023-05-22T11:46:11.705Z,99630.04
2023-05-22T11:48:48.653Z,99628.21
2023-05-22T11:51:23.320Z,99629.92
2023-05-22T11:53:55.908Z,99626.16
2023-05-22T11:56:27.983Z,99627.92
2023-05-22T11:59:00.153Z,99624.88
2023-05-22T12:01:33.311Z,99625.80
2023-05-22T12:04:06.181Z,99629.75
2023-05-22T12:06:38.693Z,99623.48
2023-05-22T12:09:11.145Z,99625.06
2023-05-22T12:11:47.978Z,99626.52
2023-05-22T12:14:20.194Z,99624.99
2023-05-22T12:16:54.596Z,99615.92
2023-05-22T12:19:28.881Z,99616.46
2023-05-22T12:22:01.696Z,99611.00
2023-05-22T12:24:42.290Z,99615.10
2023-05-22T12:27:15.564Z,99613.36
2023-05-22T12:29:47.839Z,99607.80
2023-05-22T12:32:25.793Z,99602.06
2023-05-22T12:35:01.282Z,99603.85
2023-05-22T12:37:35.777Z,99596.86
2023-05-22T12:40:10.303Z,99598.00
2023-05-22T12:42:42.635Z,99598.75
2023-05-22T12:45:17.994Z,99593.88
2023-05-22T12:47:50.846Z,99595.36
2023-05-22T12:50:23.132Z,99592.77
2023-05-22T12:52:55.394Z,99591.19
2023-05-22T12:55:27.731Z,99591.02
2023-05-22T12:58:00.219Z,99591.17
2023-05-22T13:00:32.999Z,99590.33
2023-05-22T13:03:07.083Z,99596.61
2023-05-22T13:05:39.613Z,99593.52
2023-05-22T13:08:12.106Z,99590.94
2023-05-22T13:10:44.256Z,99588.34
2023-05-22T13:13:16.381Z,99586.14
2023-05-22T13:15:48.589Z,99584.25
2023-05-22T13:18:20.754Z,99588.60
2023-05-22T13:20:52.806Z,99590.08
2023-05-22T13:23:25.267Z,99583.29
2023-05-22T13:25:57.393Z,99579.33
2023-05-22T13:28:29.776Z,99579.43
2023-05-22T13:31:02.090Z,99570.90
2023-05-22T13:33:34.171Z,99578.33
2023-05-22T13:36:07.705Z,99576.23
2023-05-22T13:38:41.146Z,99576.03
2023-05-22T13:41:15.517Z,99575.81
2023-05-22T13:43:50.187Z,99574.08
2023-05-22T13:46:23.671Z,99572.39
2023-05-22T13:48:55.864Z,99569.13
2023-05-22T13:51:28.335Z,99568.04
2023-05-22T13:54:01.215Z,99563.73
2023-05-22T13:56:33.429Z,99562.90
2023-05-22T13:59:09.166Z,99557.43
2023-05-22T14:01:41.894Z,99556.16
2023-05-22T14:04:14.204Z,99558.17
2023-05-22T14:06:47.000Z,99555.85
2023-05-22T14:09:19.468Z,99552.05
2023-05-22T14:11:51.829Z,99560.16
2023-05-22T14:14:24.124Z,99560.82
2023-05-22T14:16:56.609Z,99557.31
2023-05-22T14:19:28.894Z,99551.22
2023-05-22T14:22:01.194Z,99550.89
2023-05-22T14:24:33.313Z,99545.28
2023-05-22T14:27:05.762Z,99543.92
2023-05-22T14:29:37.874Z,99542.74
2023-05-22T14:32:10.019Z,99541.45
2023-05-22T14:34:42.206Z,99539.73
2023-05-22T14:37:14.339Z,99535.80
2023-05-22T14:39:46.713Z,99534.40
2023-05-22T14:42:19.150Z,99539.00
2023-05-22T14:44:51.458Z,99533.75
2023-05-22T14:47:23.475Z,99533.86
2023-05-22T14:50:06.233Z,99531.30
2023-05-22T14:52:48.107Z,99529.98
2023-05-22T14:55:21.322Z,99526.72
2023-05-22T14:57:53.614Z,99525.58
2023-05-22T15:00:26.537Z,99524.80
2023-05-22T15:02:58.941Z,99521.83
2023-05-22T15:05:31.463Z,99518.91
2023-05-22T15:08:03.583Z,99521.16
2023-05-22T15:10:35.714Z,99518.60
2023-05-22T15:13:07.780Z,99519.48
2023-05-22T15:15:41.308Z,99514.38
2023-05-22T15:18:14.361Z,99513.05
2023-05-22T15:20:46.516Z,99511.21
2023-05-22T15:23:18.589Z,99510.85
2023-05-22T15:25:50.662Z,99511.89
2023-05-22T15:28:23.367Z,99510.60
2023-05-22T15:30:55.475Z,99505.04
2023-05-22T15:33:27.544Z,99501.69
2023-05-22T15:35:59.600Z,99496.76
2023-05-22T15:38:31.636Z,99499.44
2023-05-22T15:41:03.708Z,99493.77
2023-05-22T15:43:35.756Z,99491.65
2023-05-22T15:46:08.651Z,99484.63
2023-05-22T15:48:40.837Z,99487.38
2023-05-22T15:51:13.283Z,99490.19
2023-05-22T15:53:45.711Z,99489.59
2023-05-22T15:56:17.877Z,99488.86
2023-05-22T15:58:49.993Z,99481.83
2023-05-22T16:01:22.184Z,99482.52
2023-05-22T16:03:54.756Z,99485.48
2023-05-22T16:06:28.535Z,99485.53
2023-05-22T16:09:00.640Z,99481.05
2023-05-22T16:11:33.506Z,99484.52
2023-05-22T16:14:05.887Z,99478.92
2023-05-22T16:16:38.090Z,99480.59
2023-05-22T16:19:11.661Z,99479.80
2023-05-22T16:21:44.046Z,99479.27
2023-05-22T16:24:16.572Z,99481.95
2023-05-22T16:26:48.710Z,99481.75
2023-05-22T16:29:22.308Z,99487.30
2023-05-22T16:31:54.602Z,99485.59
2023-05-22T16:34:26.810Z,99486.51
2023-05-22T16:36:58.950Z,99489.52
2023-05-22T16:39:31.104Z,99485.67
2023-05-22T16:42:03.417Z,99480.92
2023-05-22T16:44:35.578Z,99483.60
2023-05-22T16:47:08.253Z,99483.73
2023-05-22T16:49:41.860Z,99487.19
2023-05-22T16:52:14.047Z,99496.30
2023-05-22T16:54:46.126Z,99497.16
2023-05-22T16:57:18.505Z,99499.67
2023-05-22T16:59:50.814Z,99499.59
2023-05-22T17:02:23.138Z,99501.05
2023-05-22T17:04:55.756Z,99505.45
2023-05-22T17:07:27.999Z,99503.20
2023-05-22T17:10:00.352Z,99503.85
2023-05-22T17:12:32.611Z,99500.73
2023-05-22T17:15:05.187Z,99505.59
2023-05-22T17:17:37.429Z,99504.61
2023-05-22T17:20:11.652Z,99506.56
2023-05-22T17:22:43.903Z,99505.85
2023-05-22T17:25:16.522Z,99506.20
2023-05-22T17:27:48.655Z,99505.05
2023-05-22T17:30:20.857Z,99503.50
2023-05-22T17:32:57.058Z,99501.55
2023-05-22T17:35:29.569Z,99497.59
2023-05-22T17:38:01.840Z,99502.48
2023-05-22T17:40:43.768Z,99503.41
2023-05-22T17:43:19.272Z,99505.54
2023-05-22T17:45:52.931Z,99508.52
2023-05-22T17:48:27.474Z,99510.35
2023-05-22T17:50:59.923Z,99512.44
2023-05-22T17:53:35.701Z,99513.20
2023-05-22T17:56:09.279Z,99514.48
2023-05-22T17:58:41.450Z,99507.66
2023-05-22T18:01:14.011Z,99509.06
2023-05-22T18:03:47.106Z,99510.23
2023-05-22T18:06:21.054Z,99510.92
2023-05-22T18:08:54.788Z,99510.54
2023-05-22T18:11:27.096Z,99508.23
2023-05-22T18:13:59.887Z,99505.05
2023-05-22T18:16:32.004Z,99503.77
2023-05-22T18:19:04.945Z,99502.98
2023-05-22T18:21:37.611Z,99500.08
2023-05-22T18:24:10.129Z,99502.09
2023-05-22T18:26:42.816Z,99495.88
2023-05-22T18:29:15.058Z,99496.82
2023-05-22T18:31:47.457Z,99498.83
2023-05-22T18:34:19.747Z,99501.27
2023-05-22T18:36:52.876Z,99498.87
2023-05-22T18:39:25.048Z,99503.42
2023-05-22T18:41:58.764Z,99506.80
2023-05-22T18:44:31.036Z,99509.64
2023-05-22T18:47:04.464Z,99510.89
2023-05-22T18:49:37.794Z,99514.43
2023-05-22T18:52:10.306Z,99516.91
2023-05-22T18:54:43.556Z,99513.92
2023-05-22T18:57:16.279Z,99512.32
2023-05-22T18:59:48.874Z,99514.71
2023-05-22T19:02:22.100Z,99510.34
2023-05-22T19:04:54.745Z,99510.34
2023-05-22T19:07:28.746Z,99512.91
2023-05-22T19:10:01.052Z,99517.54
2023-05-22T19:12:33.265Z,99515.05
2023-05-22T19:15:05.784Z,99512.73
2023-05-22T19:17:38.103Z,99513.89
2023-05-22T19:20:12.429Z,99517.15
2023-05-22T19:22:44.597Z,99515.00
2023-05-22T19:25:16.782Z,99516.66
2023-05-22T19:27:48.831Z,99522.66
2023-05-22T19:30:22.215Z,99528.55
2023-05-22T19:32:56.033Z,99533.52
2023-05-22T19:35:29.668Z,99540.60
2023-05-22T19:38:01.823Z,99543.30
2023-05-22T19:40:34.089Z,99542.17
2023-05-22T19:43:06.541Z,99542.60
2023-05-22T19:45:38.897Z,99542.15
2023-05-22T19:48:12.337Z,99538.56
2023-05-22T19:50:45.633Z,99537.60
2023-05-22T19:53:18.908Z,99536.27
2023-05-22T19:55:51.521Z,99533.73
2023-05-22T19:58:24.707Z,99533.61
2023-05-22T20:00:57.468Z,99529.71
2023-05-22T20:03:29.836Z,99526.84
2023-05-22T20:06:02.175Z,99525.52
2023-05-22T20:08:34.512Z,99523.85
2023-05-22T20:11:06.692Z,99524.98
2023-05-22T20:13:38.735Z,99521.41
2023-05-22T20:16:12.865Z,99522.01
2023-05-22T20:18:45.465Z,99522.95
2023-05-22T20:21:17.648Z,99522.29
2023-05-22T20:23:49.758Z,99519.58
2023-05-22T20:26:21.913Z,99518.08
2023-05-22T20:28:54.869Z,99517.27
2023-05-22T20:31:27.957Z,99517.37
2023-05-22T20:34:02.203Z,99517.98
2023-05-22T20:36:35.105Z,99515.11
2023-05-22T20:39:07.467Z,99511.34
2023-05-22T20:41:39.712Z,99514.00
2023-05-22T20:44:11.770Z,99510.96
2023-05-22T20:46:43.908Z,99510.86
2023-05-22T20:49:20.534Z,99506.23
2023-05-22T20:51:55.656Z,99507.33
2023-05-22T20:54:29.005Z,99505.81
2023-05-22T20:57:01.389Z,99502.41
2023-05-22T20:59:33.465Z,99503.66
2023-05-22T21:02:06.038Z,99498.84
2023-05-22T21:04:38.095Z,99500.81
2023-05-22T21:07:10.197Z,99503.66
2023-05-22T21:09:42.948Z,99507.18
2023-05-22T21:12:15.053Z,99504.80
2023-05-22T21:14:47.444Z,99504.00
2023-05-22T21:17:19.718Z,99505.45
2023-05-22T21:19:51.979Z,99505.14
2023-05-22T21:22:24.291Z,99505.36
2023-05-22T21:24:56.452Z,99502.27
2023-05-22T21:27:28.627Z,99503.17
2023-05-22T21:30:00.828Z,99502.90
2023-05-22T21:32:32.972Z,99504.33
2023-05-22T21:35:05.261Z,99510.95
2023-05-22T21:37:37.479Z,99511.49
2023-05-22T21:40:11.708Z,99514.29
2023-05-22T21:42:46.421Z,99512.92
2023-05-22T21:45:19.656Z,99511.21
2023-05-22T21:47:51.782Z,99507.77
2023-05-22T21:50:23.933Z,99507.79
2023-05-22T21:52:56.710Z,99506.94
2023-05-22T21:55:28.762Z,99506.43
2023-05-22T21:58:00.850Z,99506.23
2023-05-22T22:00:33.185Z,99505.05
2023-05-22T22:03:05.497Z,99506.78
2023-05-22T22:05:38.028Z,99505.39
2023-05-22T22:08:10.086Z,99503.48
2023-05-22T22:10:42.457Z,99505.90
2023-05-22T22:13:14.853Z,99506.08
2023-05-22T22:15:47.045Z,99507.45
2023-05-22T22:18:19.248Z,99509.18
2023-05-22T22:20:55.277Z,99510.02
2023-05-22T22:23:27.477Z,99513.81
2023-05-22T22:25:59.777Z,99508.10
2023-05-22T22:28:31.836Z,99505.33
2023-05-22T22:31:04.040Z,99500.31
2023-05-22T22:33:36.341Z,99500.65
2023-05-22T22:36:09.070Z,99498.59
2023-05-22T22:38:41.239Z,99499.11
2023-05-22T22:41:13.306Z,99498.77
2023-05-22T22:43:45.491Z,99500.34
2023-05-22T22:46:17.561Z,99497.23
2023-05-22T22:48:51.288Z,99495.67
2023-05-22T22:51:23.424Z,99491.70
2023-05-22T22:53:55.450Z,99492.90
2023-05-22T22:56:29.500Z,99487.68
2023-05-22T22:59:02.287Z,99487.31
2023-05-22T23:01:34.365Z,99482.98
2023-05-22T23:04:06.431Z,99481.35
2023-05-22T23:06:38.621Z,99484.79
2023-05-22T23:09:11.458Z,99480.27
2023-05-22T23:11:43.519Z,99480.09
2023-05-22T23:14:15.747Z,99479.56
2023-05-22T23:16:47.854Z,99478.48
2023-05-22T23:19:19.966Z,99474.15
2023-05-22T23:21:52.238Z,99469.31
2023-05-22T23:24:24.361Z,99464.96
2023-05-22T23:26:56.474Z,99463.41
2023-05-22T23:29:28.850Z,99462.50
2023-05-22T23:32:00.940Z,99464.54
2023-05-22T23:34:33.430Z,99461.94
2023-05-22T23:37:05.737Z,99461.38
2023-05-22T23:39:37.802Z,99462.19
2023-05-22T23:42:11.203Z,99461.80
2023-05-22T23:44:43.740Z,99461.74
2023-05-22T23:47:17.143Z,99459.91
2023-05-22T23:49:49.140Z,99460.37
2023-05-22T23:52:21.280Z,99456.92
2023-05-22T23:54:53.299Z,99456.42
2023-05-22T23:57:25.436Z,99450.52
2023-05-22T23:59:57.484Z,99453.46
